Time;durP1;ratioP1;P1;durP2;ratioP2;P2;SDS_P1;SDS_P2;PMS_P1;PMS_P2;Temp;Humidity;BMP_temperature;BMP_pressure;BME280_temperature;BME280_humidity;BME280_pressure;Samples;Min_cycle;Max_cycle;Signal;HPM_P1;HPM_P2
2022/01/03 00:00:16;;;;;;;19.55;2.67;;;9.50;99.90;;;;;;5004439;28;20574;-59
2022/01/03 00:02:42;;;;;;;13.73;2.15;;;9.50;99.90;;;;;;4991066;28;20061;-59
2022/01/03 00:05:09;;;;;;;19.13;2.50;;;9.50;99.90;;;;;;5012026;28;20042;-60
2022/01/03 00:07:43;;;;;;;18.98;2.83;;;9.60;99.90;;;;;;5010899;28;20411;-60
2022/01/03 00:10:11;;;;;;;14.30;2.70;;;9.60;99.90;;;;;;5010950;28;20791;-59
2022/01/03 00:12:38;;;;;;;18.08;2.30;;;9.60;99.90;;;;;;5006881;28;20034;-59
2022/01/03 00:15:06;;;;;;;12.27;2.05;;;9.60;99.90;;;;;;5006836;28;20109;-59
2022/01/03 00:17:32;;;;;;;14.07;2.38;;;9.70;99.90;;;;;;5004959;28;20049;-59
2022/01/03 00:19:57;;;;;;;15.27;2.42;;;9.70;99.90;;;;;;5002189;28;20045;-60
2022/01/03 00:22:24;;;;;;;18.20;2.45;;;9.70;99.90;;;;;;4998749;28;20026;-60
2022/01/03 00:25:03;;;;;;;15.80;2.90;;;9.70;99.90;;;;;;5000386;28;20109;-60
2022/01/03 00:27:51;;;;;;;13.35;2.22;;;9.70;99.90;;;;;;5002867;28;20025;-60
2022/01/03 00:30:19;;;;;;;23.33;2.97;;;9.70;99.90;;;;;;5003653;28;20152;-59
2022/01/03 00:32:49;;;;;;;31.20;4.47;;;9.70;99.90;;;;;;5000234;28;20563;-59
2022/01/03 00:35:15;;;;;;;16.88;3.78;;;9.70;99.90;;;;;;5000300;28;20557;-59
2022/01/03 00:37:44;;;;;;;13.20;2.83;;;9.80;99.90;;;;;;5000859;28;20152;-59
2022/01/03 00:40:10;;;;;;;17.40;2.60;;;9.80;99.90;;;;;;5002655;28;20084;-60
2022/01/03 00:42:36;;;;;;;28.83;3.75;;;9.80;99.90;;;;;;5003519;28;20049;-59
2022/01/03 00:45:03;;;;;;;20.85;3.22;;;9.80;99.90;;;;;;5005519;28;20106;-59
2022/01/03 00:47:38;;;;;;;16.67;2.33;;;9.80;99.90;;;;;;5006011;28;20519;-58
2022/01/03 00:50:08;;;;;;;18.17;3.15;;;9.80;99.90;;;;;;5003072;28;20030;-59
2022/01/03 00:52:33;;;;;;;17.73;2.80;;;9.80;99.90;;;;;;5009122;28;20113;-59
2022/01/03 00:54:59;;;;;;;15.95;2.97;;;9.80;99.90;;;;;;5007983;28;20121;-59
2022/01/03 00:57:55;;;;;;;21.52;4.15;;;9.80;99.90;;;;;;5005218;28;20023;-59
2022/01/03 01:00:20;;;;;;;18.92;2.60;;;9.80;99.90;;;;;;4997169;28;20105;-59
2022/01/03 01:03:05;;;;;;;15.60;2.65;;;9.70;99.90;;;;;;5008204;28;20543;-59
2022/01/03 01:05:31;;;;;;;;;;;9.70;99.90;;;;;;5010717;28;20045;-59
2022/01/03 01:07:57;;;;;;;19.95;3.35;;;9.70;99.90;;;;;;5009067;28;20012;-60
2022/01/03 01:10:32;;;;;;;19.80;3.58;;;9.70;99.90;;;;;;5009458;28;20571;-58
2022/01/03 01:12:58;;;;;;;15.05;2.70;;;9.70;99.90;;;;;;5009544;28;20044;-58
2022/01/03 01:15:27;;;;;;;18.77;3.28;;;9.70;99.90;;;;;;5009844;28;20026;-58
2022/01/03 01:17:54;;;;;;;17.90;3.38;;;9.70;99.90;;;;;;5007942;28;20534;-60
2022/01/03 01:20:21;;;;;;;10.25;2.15;;;9.70;99.90;;;;;;5009018;28;20030;-59
2022/01/03 01:22:48;;;;;;;18.63;3.88;;;9.70;99.90;;;;;;5021486;28;20105;-59
2022/01/03 01:27:50;;;;;;;15.43;2.38;;;9.70;99.90;;;;;;5021145;28;20113;-59
2022/01/03 01:30:21;;;;;;;19.90;2.92;;;9.70;99.90;;;;;;5010549;28;20694;-57
2022/01/03 01:33:08;;;;;;;20.23;3.08;;;9.60;99.90;;;;;;5005198;28;20038;-59
2022/01/03 01:35:55;;;;;;;14.73;2.38;;;9.60;99.90;;;;;;5010895;28;20037;-59
2022/01/03 01:38:28;;;;;;;22.95;3.10;;;9.60;99.90;;;;;;5010690;28;20057;-59
2022/01/03 01:40:56;;;;;;;22.15;3.83;;;9.60;99.90;;;;;;5010723;28;20049;-60
2022/01/03 01:43:39;;;;;;;15.35;2.58;;;9.60;99.90;;;;;;5009311;28;20030;-59
2022/01/03 01:46:09;;;;;;;16.13;2.90;;;9.60;99.90;;;;;;5010319;28;20028;-60
2022/01/03 01:48:36;;;;;;;21.45;4.40;;;9.60;99.90;;;;;;5009683;28;20423;-58
2022/01/03 01:51:02;;;;;;;17.33;3.00;;;9.60;99.90;;;;;;5009839;28;20506;-59
2022/01/03 01:53:29;;;;;;;14.52;3.13;;;9.60;99.90;;;;;;5010052;28;20391;-59
2022/01/03 01:55:57;;;;;;;13.80;2.95;;;9.60;99.90;;;;;;5011904;28;20781;-60
2022/01/03 01:58:30;;;;;;;16.23;2.67;;;9.60;99.90;;;;;;5012899;28;20029;-60
2022/01/03 02:01:06;;;;;;;19.45;2.80;;;9.60;99.90;;;;;;5012122;28;20033;-59
2022/01/03 02:03:57;;;;;;;15.00;2.72;;;9.60;99.90;;;;;;5000698;28;20432;-59
2022/01/03 02:06:49;;;;;;;18.75;3.42;;;9.60;99.90;;;;;;4993833;28;20038;-59
2022/01/03 02:09:19;;;;;;;19.25;2.90;;;9.60;99.90;;;;;;5003745;28;20041;-59
2022/01/03 02:11:53;;;;;;;18.75;2.88;;;9.60;99.90;;;;;;5013522;28;20026;-59
2022/01/03 02:14:21;;;;;;;14.88;2.60;;;9.60;99.90;;;;;;5007560;28;20041;-59
2022/01/03 02:16:47;;;;;;;16.92;3.00;;;9.60;99.90;;;;;;5011036;28;20042;-58
2022/01/03 02:19:13;;;;;;;10.02;2.78;;;9.60;99.90;;;;;;5015356;28;20064;-58
2022/01/03 02:21:38;;;;;;;16.13;3.25;;;9.60;99.90;;;;;;5019925;28;20025;-59
2022/01/03 02:24:05;;;;;;;10.55;2.80;;;9.60;99.90;;;;;;5011698;28;20390;-58
2022/01/03 02:26:31;;;;;;;17.20;3.53;;;9.60;99.90;;;;;;5015816;28;20025;-59
2022/01/03 02:28:57;;;;;;;16.95;3.90;;;9.50;99.90;;;;;;5012505;28;20743;-59
2022/01/03 02:31:23;;;;;;;14.52;2.63;;;9.50;99.90;;;;;;5001491;28;20406;-59
2022/01/03 02:33:49;;;;;;;17.40;2.78;;;9.50;99.90;;;;;;5014989;28;20021;-60
2022/01/03 02:36:16;;;;;;;21.67;2.83;;;9.50;99.90;;;;;;5018392;28;20508;-57
2022/01/03 02:38:42;;;;;;;17.58;3.45;;;9.40;99.90;;;;;;5010654;28;20104;-59
2022/01/03 02:41:08;;;;;;;16.75;2.17;;;9.40;99.90;;;;;;5012576;28;20038;-60
2022/01/03 02:43:34;;;;;;;17.02;2.90;;;9.40;99.90;;;;;;5014742;28;20109;-59
2022/01/03 02:45:59;;;;;;;11.85;2.40;;;9.40;99.90;;;;;;5020320;28;20033;-59
2022/01/03 02:48:26;;;;;;;13.70;2.33;;;9.40;99.90;;;;;;5019268;28;20113;-59
2022/01/03 02:50:53;;;;;;;16.90;2.63;;;9.40;99.90;;;;;;5013004;28;20025;-59
2022/01/03 02:53:19;;;;;;;15.40;2.55;;;9.40;99.90;;;;;;5017739;28;20034;-60
2022/01/03 02:55:46;;;;;;;19.48;3.83;;;9.40;99.90;;;;;;5012666;28;20087;-59
2022/01/03 02:58:11;;;;;;;16.98;3.30;;;9.40;99.90;;;;;;5011266;28;20022;-59
2022/01/03 03:00:48;;;;;;;21.05;2.88;;;9.30;99.90;;;;;;5012611;28;20028;-59
2022/01/03 03:03:18;;;;;;;19.23;4.70;;;9.30;99.90;;;;;;5012003;28;20049;-60
2022/01/03 03:05:44;;;;;;;15.95;4.05;;;9.20;99.90;;;;;;5009099;28;20085;-59
2022/01/03 03:08:11;;;;;;;13.30;2.72;;;9.10;99.90;;;;;;5011412;28;20042;-59
2022/01/03 03:10:38;;;;;;;15.77;3.95;;;9.10;99.90;;;;;;5023847;28;20039;-60
2022/01/03 03:13:04;;;;;;;20.80;2.22;;;9.20;99.90;;;;;;5009336;28;20494;-59
2022/01/03 03:15:30;;;;;;;14.23;2.60;;;9.20;99.90;;;;;;5014092;28;20056;-59
2022/01/03 03:17:56;;;;;;;12.52;2.08;;;9.20;99.90;;;;;;5014209;28;20113;-61
2022/01/03 03:20:27;;;;;;;16.58;2.13;;;9.30;99.90;;;;;;5015242;28;20145;-60
2022/01/03 03:22:53;;;;;;;14.02;2.47;;;9.40;99.90;;;;;;5015897;28;20021;-59
2022/01/03 03:25:24;;;;;;;14.20;3.15;;;9.40;99.90;;;;;;5020261;28;20036;-59
2022/01/03 03:27:52;;;;;;;16.30;3.95;;;9.40;99.90;;;;;;5012469;28;20057;-59
2022/01/03 03:30:28;;;;;;;15.93;2.70;;;9.40;99.90;;;;;;5012093;28;20034;-59
2022/01/03 03:33:11;;;;;;;15.88;2.30;;;9.40;99.90;;;;;;5007924;28;20030;-60
2022/01/03 03:35:37;;;;;;;22.15;2.72;;;9.40;99.90;;;;;;5003114;28;20080;-59
2022/01/03 03:38:03;;;;;;;13.18;2.45;;;9.40;99.90;;;;;;5008472;28;20026;-60
2022/01/03 03:40:29;;;;;;;10.73;1.95;;;9.40;99.90;;;;;;5007568;28;20092;-58
2022/01/03 03:42:55;;;;;;;13.35;2.45;;;9.40;99.90;;;;;;5003423;28;20125;-59
2022/01/03 03:45:21;;;;;;;23.45;4.63;;;9.40;99.90;;;;;;5011298;28;20026;-59
2022/01/03 03:47:47;;;;;;;15.27;2.40;;;9.30;99.90;;;;;;5011081;28;20036;-59
2022/01/03 03:50:13;;;;;;;13.18;2.30;;;9.30;99.90;;;;;;5011528;28;20026;-61
2022/01/03 03:52:38;;;;;;;11.18;2.58;;;9.30;99.90;;;;;;5011289;28;20460;-59
2022/01/03 03:55:06;;;;;;;12.48;3.13;;;9.30;99.90;;;;;;5011041;28;20096;-59
2022/01/03 03:57:31;;;;;;;8.60;1.95;;;9.30;99.90;;;;;;5004445;28;20106;-58
2022/01/03 03:59:57;;;;;;;14.00;2.13;;;9.40;99.90;;;;;;5002417;28;20109;-59
2022/01/03 04:02:22;;;;;;;16.30;2.08;;;9.40;99.90;;;;;;5014387;28;20576;-59
2022/01/03 04:04:48;;;;;;;15.38;2.63;;;9.30;99.90;;;;;;5012704;28;20026;-60
2022/01/03 04:07:14;;;;;;;18.40;3.17;;;9.40;99.90;;;;;;5010873;28;20617;-58
2022/01/03 04:09:40;;;;;;;14.60;2.05;;;9.40;99.90;;;;;;5010666;28;20049;-59
2022/01/03 04:12:06;;;;;;;11.00;2.50;;;9.40;99.90;;;;;;5010465;28;20084;-59
2022/01/03 04:14:31;;;;;;;17.08;3.05;;;9.40;99.90;;;;;;5010181;28;20057;-57
2022/01/03 04:16:57;;;;;;;10.32;2.40;;;9.40;99.90;;;;;;5010147;28;20518;-59
2022/01/03 04:19:23;;;;;;;18.08;2.70;;;9.40;99.90;;;;;;5010396;28;20030;-59
2022/01/03 04:21:48;;;;;;;18.45;2.78;;;9.30;99.90;;;;;;5009669;28;20030;-61
2022/01/03 04:24:14;;;;;;;14.63;2.97;;;9.30;99.90;;;;;;5007950;28;20022;-58
2022/01/03 04:26:40;;;;;;;16.73;2.05;;;9.30;99.90;;;;;;4994746;28;20042;-58
2022/01/03 04:29:07;;;;;;;24.80;3.40;;;9.30;99.90;;;;;;5006855;28;20079;-58
2022/01/03 04:31:33;;;;;;;20.92;2.90;;;9.30;99.90;;;;;;5009759;28;20495;-59
2022/01/03 04:33:59;;;;;;;14.98;2.33;;;9.30;99.90;;;;;;5009898;28;20065;-59
2022/01/03 04:36:26;;;;;;;19.30;3.60;;;9.30;99.90;;;;;;5008849;28;20026;-58
2022/01/03 04:38:52;;;;;;;11.10;2.15;;;9.20;99.90;;;;;;5007068;28;20510;-58
2022/01/03 04:41:18;;;;;;;14.73;2.28;;;9.20;99.90;;;;;;5008425;28;20029;-59
2022/01/03 04:43:44;;;;;;;14.82;2.25;;;9.20;99.90;;;;;;5008503;28;20028;-59
2022/01/03 04:46:10;;;;;;;16.58;2.50;;;9.20;99.90;;;;;;5006542;28;20103;-59
2022/01/03 04:48:37;;;;;;;5.78;2.00;;;9.20;99.90;;;;;;5009670;28;20105;-58
2022/01/03 04:51:03;;;;;;;10.45;2.25;;;9.20;99.90;;;;;;5010397;28;20034;-59
2022/01/03 04:53:29;;;;;;;16.40;2.20;;;9.20;99.90;;;;;;5008870;28;20050;-59
2022/01/03 04:55:56;;;;;;;15.10;2.08;;;9.20;99.90;;;;;;5009943;28;20111;-58
2022/01/03 04:58:21;;;;;;;13.45;3.05;;;9.20;99.90;;;;;;5005048;28;20030;-59
2022/01/03 05:00:48;;;;;;;14.65;2.78;;;9.20;99.90;;;;;;5008683;28;20041;-59
2022/01/03 05:03:14;;;;;;;12.75;2.10;;;9.20;99.90;;;;;;5006211;28;20399;-57
2022/01/03 05:05:40;;;;;;;12.73;2.33;;;9.20;99.90;;;;;;5007088;28;20483;-58
2022/01/03 05:08:06;;;;;;;13.15;1.85;;;9.20;99.90;;;;;;5002132;28;20038;-60
2022/01/03 05:10:33;;;;;;;17.30;2.67;;;9.20;99.90;;;;;;5005511;28;20029;-59
2022/01/03 05:12:59;;;;;;;10.55;2.28;;;9.20;99.90;;;;;;5007368;28;20052;-61
2022/01/03 05:15:24;;;;;;;17.10;2.67;;;9.20;99.90;;;;;;5008731;28;20112;-61
2022/01/03 05:17:50;;;;;;;13.18;2.45;;;9.20;99.90;;;;;;5009769;28;20030;-56
2022/01/03 05:20:16;;;;;;;13.80;2.70;;;9.20;99.90;;;;;;5002406;28;20037;-61
2022/01/03 05:22:41;;;;;;;23.17;2.63;;;9.10;99.90;;;;;;5005093;28;20435;-60
2022/01/03 05:25:07;;;;;;;9.63;1.88;;;9.10;99.90;;;;;;5009588;28;20041;-61
2022/01/03 05:27:34;;;;;;;11.43;2.10;;;9.10;99.90;;;;;;5002698;28;20030;-61
2022/01/03 05:30:01;;;;;;;20.15;2.63;;;9.20;99.90;;;;;;5012707;28;20038;-60
2022/01/03 05:32:26;;;;;;;16.75;3.15;;;9.20;99.90;;;;;;5013589;28;20034;-59
2022/01/03 05:34:52;;;;;;;17.45;2.25;;;9.20;99.90;;;;;;5007716;28;20033;-60
2022/01/03 05:37:17;;;;;;;12.63;1.95;;;9.10;99.90;;;;;;5011276;28;20052;-60
2022/01/03 05:39:43;;;;;;;10.80;2.50;;;9.10;99.90;;;;;;5012602;28;20045;-61
2022/01/03 05:42:09;;;;;;;14.73;2.42;;;9.10;99.90;;;;;;5007351;28;20030;-60
2022/01/03 05:44:34;;;;;;;10.48;2.47;;;9.10;99.90;;;;;;5008953;28;20030;-60
2022/01/03 05:47:00;;;;;;;14.35;2.75;;;9.10;99.90;;;;;;5013375;28;20534;-60
2022/01/03 05:49:25;;;;;;;12.88;2.75;;;9.10;99.90;;;;;;5012388;28;20026;-60
2022/01/03 05:51:51;;;;;;;10.07;2.67;;;9.10;99.90;;;;;;5013615;28;20125;-59
2022/01/03 05:54:17;;;;;;;13.15;2.70;;;9.10;99.90;;;;;;5012367;28;20042;-61
2022/01/03 05:56:42;;;;;;;9.27;1.92;;;9.10;99.90;;;;;;5011290;28;20072;-61
2022/01/03 05:59:08;;;;;;;20.10;5.93;;;9.10;99.90;;;;;;5007522;28;20377;-61
2022/01/03 06:01:35;;;;;;;16.33;2.67;;;9.10;99.90;;;;;;5010606;28;20026;-61
2022/01/03 06:04:12;;;;;;;22.45;3.90;;;9.10;99.90;;;;;;5012286;28;20022;-61
2022/01/03 06:06:54;;;;;;;41.03;14.38;;;9.10;99.90;;;;;;5012384;28;20458;-61
2022/01/03 06:09:21;;;;;;;93.68;35.05;;;9.10;99.90;;;;;;5012476;28;20049;-61
2022/01/03 06:11:46;;;;;;;39.15;19.17;;;9.10;99.90;;;;;;5010886;28;20124;-61
2022/01/03 06:14:16;;;;;;;35.47;15.40;;;9.10;99.90;;;;;;5005266;28;20144;-60
2022/01/03 06:16:42;;;;;;;35.53;12.38;;;9.00;99.90;;;;;;5012342;28;20079;-60
2022/01/03 06:19:08;;;;;;;21.95;10.18;;;9.00;99.90;;;;;;5004977;28;20037;-61
2022/01/03 06:21:40;;;;;;;28.08;10.82;;;9.00;99.90;;;;;;5010546;28;20054;-61
2022/01/03 06:24:07;;;;;;;20.48;3.67;;;9.00;99.90;;;;;;5007725;28;20167;-60
2022/01/03 06:26:32;;;;;;;16.73;4.22;;;9.00;99.90;;;;;;5008819;28;20022;-60
2022/01/03 06:28:58;;;;;;;23.23;4.30;;;9.00;99.90;;;;;;5011698;28;20025;-61
2022/01/03 06:31:23;;;;;;;21.52;5.28;;;9.00;99.90;;;;;;5012379;28;20092;-61
2022/01/03 06:33:49;;;;;;;33.72;9.90;;;9.00;99.90;;;;;;5006302;28;20030;-61
2022/01/03 06:36:15;;;;;;;29.65;10.10;;;9.00;99.90;;;;;;5005238;28;20434;-61
2022/01/03 06:38:40;;;;;;;20.70;10.70;;;9.00;99.90;;;;;;5009413;28;20040;-62
2022/01/03 06:41:06;;;;;;;24.92;4.60;;;9.00;99.90;;;;;;5011384;28;20026;-62
2022/01/03 06:43:31;;;;;;;20.40;8.80;;;8.90;99.90;;;;;;5011006;28;20106;-62
2022/01/03 06:45:57;;;;;;;16.42;6.18;;;8.90;99.90;;;;;;5009795;28;20655;-62
2022/01/03 06:48:22;;;;;;;15.48;5.78;;;8.90;99.90;;;;;;5007054;28;20909;-62
2022/01/03 06:50:48;;;;;;;17.33;4.07;;;8.90;99.90;;;;;;5011590;28;20076;-60
2022/01/03 06:53:13;;;;;;;26.38;5.30;;;8.90;99.90;;;;;;5011435;28;20057;-61
2022/01/03 06:55:39;;;;;;;14.35;4.07;;;8.90;99.90;;;;;;5007204;28;20488;-61
2022/01/03 06:58:04;;;;;;;21.42;7.03;;;8.90;99.90;;;;;;5009619;28;20100;-59
2022/01/03 07:00:30;;;;;;;20.33;5.65;;;8.90;99.90;;;;;;5011941;28;20092;-59
2022/01/03 07:02:56;;;;;;;14.98;4.90;;;8.90;99.90;;;;;;5011288;28;20034;-61
2022/01/03 07:05:21;;;;;;;20.42;4.03;;;8.90;99.90;;;;;;5010937;28;20450;-61
2022/01/03 07:07:47;;;;;;;21.67;5.15;;;8.90;99.90;;;;;;5010517;28;20833;-60
2022/01/03 07:10:14;;;;;;;18.10;3.92;;;8.90;99.90;;;;;;5007876;28;20092;-60
2022/01/03 07:12:40;;;;;;;13.13;2.90;;;8.90;99.90;;;;;;5003144;28;20045;-61
2022/01/03 07:20:35;;;;;;;18.52;5.13;;;9.00;99.90;;;;;;5004625;28;20033;-61
2022/01/03 07:23:01;;;;;;;19.90;6.57;;;8.90;99.90;;;;;;5004349;28;20030;-62
2022/01/03 07:25:26;;;;;;;16.25;4.30;;;9.00;99.90;;;;;;5009919;28;20034;-61
2022/01/03 07:27:52;;;;;;;20.95;4.88;;;9.00;99.90;;;;;;5010951;28;20065;-60
2022/01/03 07:30:17;;;;;;;16.02;3.13;;;9.00;99.90;;;;;;5009391;28;20469;-60
2022/01/03 07:32:43;;;;;;;13.13;3.10;;;9.10;99.90;;;;;;5005771;28;20034;-65
2022/01/03 07:35:13;;;;;;;14.30;4.07;;;9.10;99.90;;;;;;5005419;28;20380;-61
2022/01/03 07:37:40;;;;;;;17.95;3.45;;;9.10;99.90;;;;;;5003568;28;20034;-60
2022/01/03 07:40:06;;;;;;;11.32;3.50;;;9.10;99.90;;;;;;4997350;28;20045;-61
2022/01/03 07:42:32;;;;;;;19.15;4.35;;;9.20;99.90;;;;;;5000644;28;20036;-61
2022/01/03 07:44:57;;;;;;;14.90;4.25;;;9.10;99.90;;;;;;5010758;28;20034;-61
2022/01/03 07:47:23;;;;;;;19.70;6.03;;;9.10;99.90;;;;;;5025850;28;20021;-63
2022/01/03 07:49:48;;;;;;;16.33;4.15;;;9.10;99.90;;;;;;5015506;28;20037;-64
2022/01/03 07:52:14;;;;;;;16.70;4.57;;;9.10;99.90;;;;;;5011723;28;20050;-61
2022/01/03 07:54:40;;;;;;;15.13;5.07;;;9.10;99.90;;;;;;5019334;28;20029;-60
2022/01/03 07:57:05;;;;;;;17.15;4.40;;;9.10;99.90;;;;;;5022910;28;20118;-60
2022/01/03 07:59:31;;;;;;;21.17;4.63;;;9.10;99.90;;;;;;5024487;28;20131;-60
2022/01/03 08:01:57;;;;;;;13.23;3.40;;;9.10;99.90;;;;;;5025393;28;20025;-60
2022/01/03 08:04:23;;;;;;;14.05;3.80;;;9.10;99.90;;;;;;5015166;28;20033;-60
2022/01/03 08:06:48;;;;;;;13.60;4.88;;;9.10;99.90;;;;;;5027235;28;20575;-61
2022/01/03 08:09:14;;;;;;;18.38;4.03;;;9.10;99.90;;;;;;5017502;28;20105;-61
2022/01/03 08:11:40;;;;;;;17.58;3.83;;;9.10;99.90;;;;;;5016462;28;20548;-61
2022/01/03 08:14:05;;;;;;;14.38;3.10;;;9.10;99.90;;;;;;5018763;28;20468;-60
2022/01/03 08:16:31;;;;;;;12.15;3.50;;;9.10;99.90;;;;;;5020034;28;20034;-61
2022/01/03 08:18:56;;;;;;;14.18;2.92;;;9.10;99.90;;;;;;5017049;28;20033;-60
2022/01/03 08:21:22;;;;;;;18.25;2.78;;;9.10;99.90;;;;;;5015408;28;20110;-60
2022/01/03 08:23:48;;;;;;;16.98;2.60;;;9.10;99.90;;;;;;5009857;28;20080;-60
2022/01/03 08:26:13;;;;;;;11.50;2.20;;;9.10;99.90;;;;;;5011105;28;20022;-61
2022/01/03 08:28:39;;;;;;;22.45;3.30;;;9.10;99.90;;;;;;5009020;28;20033;-60
2022/01/03 08:31:04;;;;;;;24.38;4.10;;;9.10;99.90;;;;;;5008567;28;20125;-61
2022/01/03 08:33:30;;;;;;;22.20;5.18;;;9.10;99.90;;;;;;5000304;28;20034;-60
2022/01/03 08:35:57;;;;;;;36.10;10.55;;;9.10;99.90;;;;;;5008688;28;20057;-61
2022/01/03 08:38:23;;;;;;;63.90;17.77;;;9.10;99.90;;;;;;5010704;28;20091;-61
2022/01/03 08:40:48;;;;;;;41.00;11.15;;;9.10;99.90;;;;;;5010101;28;20022;-60
2022/01/03 08:43:14;;;;;;;54.08;17.48;;;9.20;99.90;;;;;;5006925;28;20393;-60
2022/01/03 08:45:39;;;;;;;28.17;8.88;;;9.20;99.90;;;;;;5009823;28;20073;-61
2022/01/03 08:48:05;;;;;;;34.33;11.15;;;9.10;99.90;;;;;;5009658;28;20112;-60
2022/01/03 08:50:31;;;;;;;34.92;11.35;;;9.10;99.90;;;;;;5008845;28;20026;-60
2022/01/03 08:52:56;;;;;;;21.20;6.45;;;9.10;99.90;;;;;;5009256;28;20079;-60
2022/01/03 08:55:22;;;;;;;23.92;7.07;;;9.10;99.90;;;;;;5003848;28;20483;-60
2022/01/03 08:57:51;;;;;;;38.85;12.02;;;9.10;99.90;;;;;;5005274;28;20034;-61
2022/01/03 09:00:17;;;;;;;56.80;16.70;;;9.20;99.90;;;;;;5003793;28;20045;-60
2022/01/03 09:02:43;;;;;;;66.18;17.30;;;9.20;99.90;;;;;;5004048;28;20033;-60
2022/01/03 09:05:10;;;;;;;49.67;13.77;;;9.30;99.90;;;;;;5009586;28;20034;-60
2022/01/03 09:07:36;;;;;;;23.80;5.50;;;9.30;99.90;;;;;;4994539;28;20026;-60
2022/01/03 09:10:03;;;;;;;24.48;5.95;;;9.30;99.90;;;;;;5009398;28;20030;-61
2022/01/03 09:12:29;;;;;;;31.92;7.55;;;9.30;99.90;;;;;;5006717;28;20045;-61
2022/01/03 09:14:55;;;;;;;29.58;7.68;;;9.30;99.90;;;;;;5002543;28;20026;-61
2022/01/03 09:17:20;;;;;;;41.90;11.18;;;9.30;99.90;;;;;;5005751;28;20021;-60
2022/01/03 09:19:46;;;;;;;29.42;10.60;;;9.40;99.90;;;;;;5008821;28;20026;-59
2022/01/03 09:22:19;;;;;;;32.38;10.13;;;9.40;99.90;;;;;;5009705;28;20040;-60
2022/01/03 09:24:52;;;;;;;38.33;14.03;;;9.40;99.90;;;;;;5008049;28;20042;-61
2022/01/03 09:30:05;;;;;;;43.40;16.58;;;9.50;99.90;;;;;;5009464;28;20045;-60
2022/01/03 09:32:31;;;;;;;40.83;13.55;;;9.60;99.90;;;;;;5009300;28;20112;-60
2022/01/03 09:34:58;;;;;;;37.88;11.65;;;9.60;99.90;;;;;;5003142;28;20032;-61
2022/01/03 09:37:24;;;;;;;65.88;21.70;;;9.80;99.90;;;;;;5008913;28;20022;-60
2022/01/03 09:39:50;;;;;;;43.28;14.32;;;9.80;99.90;;;;;;5008482;28;20040;-60
2022/01/03 09:42:23;;;;;;;96.15;32.40;;;9.80;99.90;;;;;;5007668;28;20399;-60
2022/01/03 09:44:50;;;;;;;35.85;8.98;;;9.80;99.90;;;;;;5008161;28;20494;-61
2022/01/03 09:47:18;;;;;;;22.10;4.78;;;9.90;99.90;;;;;;5007264;28;20026;-62
2022/01/03 09:49:47;;;;;;;23.90;7.32;;;10.00;99.90;;;;;;5004964;28;20030;-61
2022/01/03 09:52:15;;;;;;;30.48;9.73;;;9.90;99.90;;;;;;5010029;28;20080;-61
2022/01/03 09:54:41;;;;;;;28.30;5.97;;;10.00;99.90;;;;;;5006840;28;20034;-63
2022/01/03 09:57:07;;;;;;;30.02;6.90;;;10.10;99.90;;;;;;5008366;28;20044;-61
2022/01/03 09:59:34;;;;;;;18.77;4.63;;;10.20;99.90;;;;;;5009644;28;20021;-61
2022/01/03 10:02:03;;;;;;;30.25;10.85;;;10.30;99.90;;;;;;5023160;28;20017;-62
2022/01/03 10:04:28;;;;;;;23.23;6.85;;;10.40;99.90;;;;;;5013008;28;20026;-61
2022/01/03 10:06:54;;;;;;;14.23;4.78;;;10.50;99.90;;;;;;5016539;28;20391;-61
2022/01/03 10:09:20;;;;;;;15.95;4.78;;;10.50;99.90;;;;;;5018323;28;20539;-62
2022/01/03 10:11:47;;;;;;;23.63;9.15;;;10.40;99.90;;;;;;5007854;28;20038;-61
2022/01/03 10:14:13;;;;;;;19.95;5.35;;;10.40;99.90;;;;;;5002501;28;20488;-62
2022/01/03 10:16:40;;;;;;;19.42;5.50;;;10.40;99.90;;;;;;5012745;28;20042;-62
2022/01/03 10:19:05;;;;;;;19.15;5.88;;;10.30;99.90;;;;;;5012449;28;20029;-61
2022/01/03 10:21:46;;;;;;;20.15;7.65;;;10.30;99.90;;;;;;5012152;28;20020;-61
2022/01/03 10:24:14;;;;;;;28.33;9.13;;;10.40;99.90;;;;;;5011961;28;20029;-62
2022/01/03 10:26:42;;;;;;;22.23;8.65;;;10.40;99.90;;;;;;5011376;28;20144;-61
2022/01/03 10:29:10;;;;;;;19.98;6.22;;;10.50;99.90;;;;;;5009885;28;20033;-63
2022/01/03 10:31:39;;;;;;;15.77;5.22;;;10.60;99.90;;;;;;5012316;28;20030;-61
2022/01/03 10:34:11;;;;;;;33.72;14.88;;;10.60;99.90;;;;;;5010925;28;20022;-61
2022/01/03 10:36:38;;;;;;;36.75;9.82;;;10.60;99.90;;;;;;5012811;28;20118;-62
2022/01/03 10:39:22;;;;;;;51.13;16.58;;;10.70;99.90;;;;;;5010658;28;20517;-62
2022/01/03 10:41:53;;;;;;;39.20;11.02;;;10.80;99.90;;;;;;5025352;28;20116;-61
2022/01/03 10:44:40;;;;;;;22.33;5.40;;;10.80;99.90;;;;;;5011639;28;20026;-61
2022/01/03 10:47:10;;;;;;;19.90;4.95;;;10.90;99.90;;;;;;5011976;28;20040;-60
2022/01/03 10:49:38;;;;;;;30.92;10.00;;;10.80;99.90;;;;;;5011360;28;20038;-62
2022/01/03 10:52:16;;;;;;;43.17;15.23;;;10.80;99.90;;;;;;5011337;28;20101;-62
2022/01/03 10:54:43;;;;;;;34.42;8.23;;;10.80;99.90;;;;;;5011454;28;20397;-62
2022/01/03 10:57:08;;;;;;;27.83;10.35;;;10.80;99.90;;;;;;5010889;28;20046;-61
2022/01/03 10:59:36;;;;;;;25.45;8.10;;;10.80;99.90;;;;;;5011764;28;20026;-59
2022/01/03 11:02:06;;;;;;;18.25;3.85;;;10.70;99.90;;;;;;5011840;28;20022;-61
2022/01/03 11:04:46;;;;;;;18.92;5.45;;;10.70;99.90;;;;;;5011038;28;20117;-62
2022/01/03 11:13:26;;;;;;;23.58;4.63;;;10.60;99.90;;;;;;5003186;28;20045;-62
2022/01/03 11:16:03;;;;;;;16.83;4.13;;;10.60;99.90;;;;;;4982214;28;20045;-61
2022/01/03 11:18:33;;;;;;;11.48;2.63;;;10.50;99.90;;;;;;4998517;28;20022;-61
2022/01/03 11:21:13;;;;;;;13.25;2.85;;;10.50;99.90;;;;;;4989687;28;20809;-61
2022/01/03 11:23:40;;;;;;;16.90;3.33;;;10.50;99.90;;;;;;5009245;28;20054;-60
2022/01/03 11:26:17;;;;;;;13.10;3.47;;;10.50;99.90;;;;;;5021849;28;20057;-61
2022/01/03 11:28:44;;;;;;;34.53;14.65;;;10.60;99.90;;;;;;5016162;28;20040;-61
2022/01/03 11:31:11;;;;;;;12.23;2.33;;;10.60;99.90;;;;;;5026690;28;20609;-61
2022/01/03 11:33:39;;;;;;;15.23;4.45;;;10.70;99.90;;;;;;5009563;28;20046;-62
2022/01/03 11:36:06;;;;;;;9.88;2.70;;;10.90;99.90;;;;;;5019419;28;20395;-61
2022/01/03 11:38:35;;;;;;;29.75;9.15;;;11.00;99.90;;;;;;5011400;28;20025;-61
2022/01/03 11:41:04;;;;;;;13.18;2.45;;;11.10;99.90;;;;;;5013946;28;20766;-61
2022/01/03 11:43:33;;;;;;;23.75;6.68;;;11.00;99.90;;;;;;5019536;28;20029;-61
2022/01/03 11:46:00;;;;;;;11.65;4.05;;;11.00;99.90;;;;;;5020390;28;20022;-62
2022/01/03 11:48:26;;;;;;;20.15;5.80;;;10.80;99.90;;;;;;5021056;28;20025;-61
2022/01/03 11:50:54;;;;;;;10.98;3.33;;;10.90;99.90;;;;;;5015602;28;20522;-61
2022/01/03 11:53:23;;;;;;;10.40;4.15;;;10.80;99.90;;;;;;5019565;28;20060;-61
2022/01/03 11:55:57;;;;;;;10.05;4.75;;;10.90;99.90;;;;;;5012856;28;20041;-61
2022/01/03 12:04:03;;;;;;;15.07;4.72;;;10.60;99.90;;;;;;5011261;28;20032;-62
2022/01/03 12:06:32;;;;;;;11.00;3.97;;;10.60;99.90;;;;;;5020479;28;20025;-61
2022/01/03 12:09:09;;;;;;;16.83;6.50;;;10.50;99.90;;;;;;5021072;28;20057;-62
2022/01/03 12:11:55;;;;;;;13.77;4.75;;;10.50;99.90;;;;;;5003161;28;20729;-61
2022/01/03 12:14:23;;;;;;;10.48;3.15;;;10.40;99.90;;;;;;5008801;28;20038;-62
2022/01/03 12:16:54;;;;;;;13.43;4.03;;;10.50;99.90;;;;;;5010985;28;20053;-60
2022/01/03 12:19:32;;;;;;;11.25;4.18;;;10.60;99.90;;;;;;5003827;28;20061;-61
2022/01/03 12:21:59;;;;;;;11.32;4.90;;;10.60;99.90;;;;;;5013675;28;20526;-61
2022/01/03 12:24:36;;;;;;;12.85;4.32;;;10.50;99.90;;;;;;5014081;28;20022;-60
2022/01/03 12:27:11;;;;;;;13.38;3.10;;;10.50;99.90;;;;;;5018166;28;20555;-62
2022/01/03 12:29:55;;;;;;;10.77;3.70;;;10.50;99.90;;;;;;5014609;28;20406;-62
2022/01/03 12:32:45;;;;;;;15.27;6.43;;;10.40;99.90;;;;;;5014962;28;20029;-62
2022/01/03 12:35:16;;;;;;;18.65;5.35;;;10.40;99.90;;;;;;5001520;28;20117;-61
2022/01/03 12:37:52;;;;;;;17.40;4.25;;;10.40;99.90;;;;;;5003113;28;20030;-62
2022/01/03 12:40:19;;;;;;;14.60;5.00;;;10.40;99.90;;;;;;5003884;28;20145;-61
2022/01/03 12:42:53;;;;;;;13.95;4.90;;;10.50;99.90;;;;;;5002010;28;20027;-61
2022/01/03 12:45:34;;;;;;;15.07;5.05;;;10.50;99.90;;;;;;5000164;28;20072;-61
2022/01/03 12:48:09;;;;;;;14.75;3.78;;;10.50;99.90;;;;;;5004297;28;20041;-61
2022/01/03 12:50:40;;;;;;;18.05;6.68;;;10.50;99.90;;;;;;5015603;28;20079;-63
2022/01/03 12:53:07;;;;;;;18.98;7.72;;;10.50;99.90;;;;;;5019761;28;20079;-62
2022/01/03 12:55:41;;;;;;;17.88;6.80;;;10.40;99.90;;;;;;5006180;28;20030;-61
2022/01/03 12:58:19;;;;;;;13.38;5.32;;;10.30;99.90;;;;;;5004556;28;20679;-62
2022/01/03 13:01:15;;;;;;;11.13;3.97;;;10.30;99.90;;;;;;5019116;28;20398;-62
2022/01/03 13:03:52;;;;;;;26.15;10.10;;;10.20;99.90;;;;;;5021491;28;20053;-62
2022/01/03 13:06:21;;;;;;;30.42;11.35;;;10.20;99.90;;;;;;5022789;28;20414;-63
2022/01/03 13:08:56;;;;;;;41.05;16.52;;;10.20;99.90;;;;;;5023126;28;20259;-62
2022/01/03 13:11:28;;;;;;;14.02;5.30;;;10.20;99.90;;;;;;5012451;28;20492;-62